createdAt,value
2022-10-13T00:02:40.610Z,101568.91
2022-10-13T00:32:44.981Z,101535.09
2022-10-13T01:02:48.029Z,101540.86
2022-10-13T01:32:51.530Z,101511.78
2022-10-13T02:02:54.627Z,101481.22
2022-10-13T02:32:57.858Z,101469.17
2022-10-13T03:03:01.178Z,101449.88
2022-10-13T03:33:04.606Z,101444.55
2022-10-13T04:03:07.764Z,101440.84
2022-10-13T04:33:11.144Z,101426.72
2022-10-13T05:03:15.511Z,101413.79
2022-10-13T05:33:18.809Z,101394.67
2022-10-13T06:03:22.416Z,101382.06
2022-10-13T06:33:25.772Z,101369.37
2022-10-13T07:03:29.352Z,101349.98
2022-10-13T07:33:32.850Z,101330.82
2022-10-13T08:33:40.299Z,101298.82
2022-10-13T09:03:43.703Z,101271.73
2022-10-13T09:33:46.633Z,101254.80
2022-10-13T10:03:49.737Z,101223.63
2022-10-13T10:33:53.248Z,101180.18
2022-10-13T11:03:56.415Z,101143.36
2022-10-13T11:34:00.234Z,101116.23
2022-10-13T12:04:03.642Z,101081.57
2022-10-13T12:34:06.616Z,101059.89
2022-10-13T13:04:10.540Z,101052.70
2022-10-13T13:34:13.778Z,101020.36
2022-10-13T14:04:16.975Z,101004.33
2022-10-13T14:34:20.890Z,100984.99
2022-10-13T15:04:24.298Z,100974.31
2022-10-13T15:34:28.405Z,100965.85
2022-10-13T16:04:36.412Z,100953.89
2022-10-13T16:34:41.284Z,100941.95
2022-10-13T17:04:44.013Z,100941.83
2022-10-13T17:34:48.097Z,100924.67
2022-10-13T18:04:51.309Z,100933.17
2022-10-13T18:34:56.295Z,100921.55
2022-10-13T19:04:59.794Z,100911.38
2022-10-13T19:35:03.282Z,100913.95
2022-10-13T20:05:06.876Z,100899.28
2022-10-13T20:35:10.997Z,100903.48
2022-10-13T21:05:14.180Z,100891.46
2022-10-13T21:35:17.740Z,100881.69
2022-10-13T22:05:21.159Z,100861.52
2022-10-13T22:35:24.608Z,100857.84
2022-10-13T23:05:28.058Z,100843.20
2022-10-13T23:35:31.449Z,100843.52
